Time;durP1;ratioP1;P1;durP2;ratioP2;P2;SDS_P1;SDS_P2;PMS_P1;PMS_P2;Temp;Humidity;BMP_temperature;BMP_pressure;BME280_temperature;BME280_humidity;BME280_pressure;Samples;Min_cycle;Max_cycle;Signal;HPM_P1;HPM_P2
2023/04/02 00:01:57;;;;;;;11.32;2.67;;;;;;;;;;6094065;29;20419;-82
2023/04/02 00:05:49;;;;;;;5.20;2.05;;;;;;;;;;6104499;29;20059;-83
2023/04/02 00:13:19;;;;;;;3.78;2.13;;;;;;;;;;6044994;29;20123;-82
2023/04/02 00:20:11;;;;;;;3.45;2.08;;;;;;;;;;6062087;29;20124;-81
2023/04/02 00:23:14;;;;;;;4.20;1.70;;;;;;;;;;6065129;29;20056;-81
2023/04/02 00:26:22;;;;;;;2.90;1.70;;;;;;;;;;6089147;29;20060;-81
2023/04/02 00:30:07;;;;;;;5.97;2.17;;;;;;;;;;6084407;29;20044;-81
2023/04/02 00:33:15;;;;;;;4.15;2.15;;;;;;;;;;6069787;29;20132;-84
2023/04/02 00:36:20;;;;;;;6.40;2.50;;;;;;;;;;6086633;29;20064;-82
2023/04/02 00:39:45;;;;;;;4.63;2.70;;;;;;;;;;6108296;29;20043;-79
2023/04/02 00:43:03;;;;;;;5.93;3.42;;;;;;;;;;6134469;28;20247;-80
2023/04/02 00:46:16;;;;;;;8.25;4.63;;;;;;;;;;6137024;29;20074;-80
2023/04/02 00:49:31;;;;;;;9.70;4.63;;;;;;;;;;6211020;28;20092;-80
2023/04/02 00:52:34;;;;;;;7.93;5.40;;;;;;;;;;6212918;28;20101;-84
2023/04/02 00:55:40;;;;;;;9.07;5.75;;;;;;;;;;6217805;28;20061;-81
2023/04/02 00:58:43;;;;;;;12.32;6.13;;;;;;;;;;6211996;28;20054;-80
2023/04/02 01:01:53;;;;;;;10.63;6.45;;;;;;;;;;6216959;28;20128;-81
2023/04/02 01:05:12;;;;;;;9.00;6.30;;;;;;;;;;6212436;28;20042;-80
2023/04/02 01:08:59;;;;;;;10.98;6.05;;;;;;;;;;6214308;28;20050;-82
2023/04/02 01:12:23;;;;;;;20.48;6.95;;;;;;;;;;6213732;28;20253;-81
2023/04/02 01:15:56;;;;;;;10.20;5.60;;;;;;;;;;6215656;28;20438;-83
2023/04/02 01:19:05;;;;;;;13.73;6.80;;;;;;;;;;6226642;28;20242;-82
2023/04/02 01:22:07;;;;;;;16.38;5.90;;;;;;;;;;6226998;28;20103;-81
2023/04/02 01:25:14;;;;;;;11.73;6.25;;;;;;;;;;6244115;28;20320;-81
2023/04/02 01:28:19;;;;;;;10.27;5.63;;;;;;;;;;6246918;28;20047;-80
2023/04/02 01:31:23;;;;;;;11.35;6.10;;;;;;;;;;6246260;28;20053;-81
2023/04/02 01:34:27;;;;;;;9.30;5.97;;;;;;;;;;6247414;28;20069;-81
2023/04/02 01:37:37;;;;;;;17.00;6.00;;;;;;;;;;6251301;28;20061;-80
2023/04/02 01:40:42;;;;;;;10.88;6.10;;;;;;;;;;6245968;28;20061;-81
2023/04/02 01:43:47;;;;;;;10.73;6.03;;;;;;;;;;6244813;28;20215;-83
2023/04/02 01:46:50;;;;;;;10.57;5.93;;;;;;;;;;6251311;28;20057;-80
2023/04/02 01:49:53;;;;;;;13.53;6.53;;;;;;;;;;6244925;28;20370;-80
2023/04/02 01:52:57;;;;;;;9.80;5.60;;;;;;;;;;6251187;28;20463;-80
2023/04/02 01:56:00;;;;;;;10.38;5.90;;;;;;;;;;6244033;28;20053;-83
2023/04/02 01:59:04;;;;;;;13.47;6.80;;;;;;;;;;6243635;28;20050;-80
2023/04/02 02:02:11;;;;;;;11.75;5.90;;;;;;;;;;6242141;28;20065;-80
2023/04/02 02:05:13;;;;;;;12.55;6.15;;;;;;;;;;6245272;28;20265;-81
2023/04/02 02:08:34;;;;;;;10.90;6.60;;;;;;;;;;6243899;28;20045;-82
2023/04/02 02:11:39;;;;;;;14.00;8.98;;;;;;;;;;6242026;28;20076;-83
2023/04/02 02:14:46;;;;;;;14.63;8.63;;;;;;;;;;6238790;28;20053;-80
2023/04/02 02:17:50;;;;;;;13.43;7.32;;;;;;;;;;6241563;28;20104;-78
2023/04/02 02:20:53;;;;;;;13.38;8.00;;;;;;;;;;6242628;28;20053;-80
2023/04/02 02:23:56;;;;;;;14.80;8.52;;;;;;;;;;6242628;28;20321;-81
2023/04/02 02:27:07;;;;;;;17.02;8.68;;;;;;;;;;6245221;28;20123;-82
2023/04/02 02:30:14;;;;;;;16.05;8.60;;;;;;;;;;6245250;28;20049;-79
2023/04/02 02:33:55;;;;;;;16.30;8.32;;;;;;;;;;6230671;28;20057;-81
2023/04/02 02:37:46;;;;;;;13.95;7.82;;;;;;;;;;6241644;28;20116;-81
2023/04/02 02:40:57;;;;;;;16.65;7.72;;;;;;;;;;6245941;28;20045;-81
2023/04/02 02:44:13;;;;;;;12.95;7.13;;;;;;;;;;6244273;28;20058;-79
2023/04/02 02:47:17;;;;;;;12.48;7.05;;;;;;;;;;6245494;28;20285;-79
2023/04/02 02:50:35;;;;;;;9.65;6.45;;;;;;;;;;6245878;28;20068;-79
2023/04/02 02:54:34;;;;;;;10.63;6.38;;;;;;;;;;6227234;28;20048;-80
2023/04/02 02:58:10;;;;;;;10.25;5.57;;;;;;;;;;6236792;28;20104;-80
2023/04/02 03:01:12;;;;;;;8.77;5.78;;;;;;;;;;6226279;28;20060;-80
2023/04/02 03:04:21;;;;;;;10.75;6.50;;;;;;;;;;6240624;28;20057;-81
2023/04/02 03:07:25;;;;;;;15.15;6.07;;;;;;;;;;6240151;28;20108;-82
2023/04/02 03:10:33;;;;;;;13.55;6.85;;;;;;;;;;6239686;28;20048;-83
2023/04/02 03:13:39;;;;;;;9.95;6.28;;;;;;;;;;6241390;28;20045;-80
2023/04/02 03:16:43;;;;;;;12.85;7.13;;;;;;;;;;6239808;28;20053;-80
2023/04/02 03:23:17;;;;;;;13.05;7.90;;;;;;;;;;6237534;28;20057;-82
2023/04/02 03:26:23;;;;;;;15.52;8.63;;;;;;;;;;6241330;28;20298;-81
2023/04/02 03:29:27;;;;;;;16.17;8.60;;;;;;;;;;6229299;28;20046;-79
2023/04/02 03:32:31;;;;;;;15.85;8.15;;;;;;;;;;6238425;28;20540;-79
2023/04/02 03:35:36;;;;;;;15.45;7.82;;;;;;;;;;6229975;28;20046;-80
2023/04/02 03:38:44;;;;;;;13.63;8.23;;;;;;;;;;6241209;28;20053;-79
2023/04/02 03:42:03;;;;;;;15.77;8.93;;;;;;;;;;6236604;28;20045;-81
2023/04/02 03:45:31;;;;;;;15.35;8.93;;;;;;;;;;6238865;28;20655;-80
2023/04/02 03:48:59;;;;;;;17.92;10.43;;;;;;;;;;6218220;28;20050;-80
2023/04/02 03:52:04;;;;;;;16.98;10.35;;;;;;;;;;6229130;28;20049;-83
2023/04/02 03:55:14;;;;;;;17.10;9.95;;;;;;;;;;6238343;28;20328;-79
2023/04/02 03:58:38;;;;;;;19.02;11.55;;;;;;;;;;6237911;28;20057;-79
2023/04/02 04:01:58;;;;;;;20.73;11.77;;;;;;;;;;6238597;28;20049;-79
2023/04/02 04:05:01;;;;;;;18.52;11.40;;;;;;;;;;6235605;28;20050;-80
2023/04/02 04:08:05;;;;;;;19.13;11.48;;;;;;;;;;6241023;28;20049;-80
2023/04/02 04:14:33;;;;;;;20.08;12.07;;;;;;;;;;6248940;28;20049;-79
2023/04/02 04:17:50;;;;;;;21.63;12.32;;;;;;;;;;6259675;28;20069;-80
2023/04/02 04:20:55;;;;;;;19.88;11.88;;;;;;;;;;6259876;28;20068;-79
2023/04/02 04:24:02;;;;;;;20.50;12.52;;;;;;;;;;6258830;28;20898;-82
2023/04/02 04:27:46;;;;;;;20.80;12.93;;;;;;;;;;6250485;28;20049;-79
2023/04/02 04:30:52;;;;;;;21.23;12.63;;;;;;;;;;6139019;28;20055;-83
2023/04/02 04:34:02;;;;;;;21.25;12.15;;;;;;;;;;6246198;28;20234;-80
2023/04/02 04:37:07;;;;;;;21.83;12.32;;;;;;;;;;6224246;28;20125;-79
2023/04/02 04:40:15;;;;;;;20.77;13.73;;;;;;;;;;6244049;28;20046;-79
2023/04/02 04:43:20;;;;;;;23.25;13.27;;;;;;;;;;6243748;28;20061;-79
2023/04/02 04:46:27;;;;;;;22.15;13.18;;;;;;;;;;6246233;28;20328;-80
2023/04/02 04:53:16;;;;;;;22.63;13.60;;;;;;;;;;6227301;28;20057;-80
2023/04/02 04:56:21;;;;;;;21.73;12.80;;;;;;;;;;6242027;28;20057;-81
2023/04/02 04:59:25;;;;;;;24.23;13.77;;;;;;;;;;6242553;28;20061;-79
2023/04/02 05:02:40;;;;;;;;;;;;;;;;;;6244760;28;20060;-82
2023/04/02 05:05:44;;;;;;;25.92;13.30;;;;;;;;;;6241005;28;19921;-79
2023/04/02 05:08:49;;;;;;;21.73;13.82;;;;;;;;;;6244827;28;20125;-84
2023/04/02 05:12:02;;;;;;;25.90;15.27;;;;;;;;;;6241855;28;20176;-81
2023/04/02 05:15:18;;;;;;;21.45;13.68;;;;;;;;;;6240492;28;20052;-80
2023/04/02 05:18:25;;;;;;;23.80;14.52;;;;;;;;;;6239554;28;20060;-81
2023/04/02 05:21:34;;;;;;;26.98;15.63;;;;;;;;;;6238065;28;20060;-80
2023/04/02 05:24:44;;;;;;;23.75;13.63;;;;;;;;;;6243033;28;20053;-81
2023/04/02 05:27:51;;;;;;;26.77;14.60;;;;;;;;;;6241070;28;20050;-81
2023/04/02 05:31:00;;;;;;;27.98;14.85;;;;;;;;;;6240927;28;20049;-81
2023/04/02 05:34:02;;;;;;;26.30;15.60;;;;;;;;;;6232788;28;20097;-79
2023/04/02 05:37:08;;;;;;;24.65;14.27;;;;;;;;;;6241622;28;20061;-78
2023/04/02 05:40:14;;;;;;;20.52;13.85;;;;;;;;;;6217928;28;20860;-78
2023/04/02 05:43:44;;;;;;;24.90;15.45;;;;;;;;;;6206912;28;20156;-77
2023/04/02 05:46:48;;;;;;;24.58;16.08;;;;;;;;;;6218901;28;20367;-76
2023/04/02 05:50:00;;;;;;;25.48;15.40;;;;;;;;;;6220557;28;20054;-76
2023/04/02 05:53:08;;;;;;;26.98;15.95;;;;;;;;;;6218964;28;20073;-76
2023/04/02 05:56:16;;;;;;;28.23;15.35;;;;;;;;;;6222336;28;20053;-78
2023/04/02 05:59:23;;;;;;;25.10;14.68;;;;;;;;;;6219502;28;20402;-83
2023/04/02 06:03:07;;;;;;;27.02;17.00;;;;;;;;;;6223357;28;20343;-79
2023/04/02 06:06:17;;;;;;;28.58;15.90;;;;;;;;;;6171926;28;20101;-80
2023/04/02 06:09:37;;;;;;;26.98;15.27;;;;;;;;;;6223193;28;20058;-82
2023/04/02 06:12:42;;;;;;;25.10;14.93;;;;;;;;;;6222254;28;20088;-82
2023/04/02 06:15:44;;;;;;;29.45;16.05;;;;;;;;;;6243324;28;20052;-86
2023/04/02 06:18:46;;;;;;;24.83;14.48;;;;;;;;;;6239078;28;20066;-80
2023/04/02 06:22:00;;;;;;;25.95;14.95;;;;;;;;;;6239876;28;20157;-82
2023/04/02 06:25:05;;;;;;;26.55;14.88;;;;;;;;;;6240621;28;20061;-81
2023/04/02 06:28:13;;;;;;;25.48;15.32;;;;;;;;;;6242071;28;20054;-83
2023/04/02 06:31:23;;;;;;;27.80;16.40;;;;;;;;;;6240361;28;20119;-82
2023/04/02 06:34:26;;;;;;;25.55;14.95;;;;;;;;;;6241705;28;20329;-78
2023/04/02 06:37:32;;;;;;;26.77;15.43;;;;;;;;;;6238847;28;20120;-77
2023/04/02 06:40:40;;;;;;;27.33;15.07;;;;;;;;;;6242099;28;20072;-77
2023/04/02 06:43:45;;;;;;;30.52;15.32;;;;;;;;;;6242148;28;20060;-78
2023/04/02 06:47:02;;;;;;;24.50;15.88;;;;;;;;;;6241656;28;20053;-80
2023/04/02 06:50:07;;;;;;;26.13;15.32;;;;;;;;;;6238266;28;20058;-77
2023/04/02 06:53:18;;;;;;;26.58;15.30;;;;;;;;;;6240918;28;20060;-78
2023/04/02 06:56:28;;;;;;;29.00;15.45;;;;;;;;;;6237739;28;20053;-78
2023/04/02 06:59:30;;;;;;;24.38;15.77;;;;;;;;;;6240658;28;20045;-79
2023/04/02 07:02:34;;;;;;;30.98;15.60;;;;;;;;;;6240485;28;20050;-77
2023/04/02 07:05:36;;;;;;;25.77;16.13;;;;;;;;;;6241916;28;20053;-75
2023/04/02 07:08:38;;;;;;;23.05;14.90;;;;;;;;;;6241110;28;20288;-77
2023/04/02 07:11:41;;;;;;;25.75;15.65;;;;;;;;;;6240295;28;20061;-72
2023/04/02 07:14:42;;;;;;;30.02;16.80;;;;;;;;;;6241228;28;20329;-73
2023/04/02 07:17:44;;;;;;;29.77;16.48;;;;;;;;;;6239153;28;20063;-75
2023/04/02 07:20:46;;;;;;;22.75;15.70;;;;;;;;;;6241124;28;20148;-73
2023/04/02 07:23:48;;;;;;;27.98;16.85;;;;;;;;;;6239831;28;20045;-75
2023/04/02 07:26:51;;;;;;;24.70;15.27;;;;;;;;;;6239575;28;20046;-75
2023/04/02 07:29:52;;;;;;;22.17;15.90;;;;;;;;;;6240034;28;20057;-74
2023/04/02 07:33:00;;;;;;;21.15;14.95;;;;;;;;;;6237994;28;20269;-77
2023/04/02 07:36:02;;;;;;;24.83;15.43;;;;;;;;;;6239424;28;20162;-78
2023/04/02 07:39:04;;;;;;;29.23;15.82;;;;;;;;;;6241620;28;20053;-82
2023/04/02 07:42:07;;;;;;;23.40;15.63;;;;;;;;;;6240845;28;20088;-77
2023/04/02 07:45:10;;;;;;;24.67;15.23;;;;;;;;;;6238429;28;20152;-78
2023/04/02 07:48:13;;;;;;;23.50;15.75;;;;;;;;;;6240141;28;20099;-76
2023/04/02 07:51:17;;;;;;;22.83;14.75;;;;;;;;;;6242417;28;20233;-76
2023/04/02 07:54:18;;;;;;;24.00;14.85;;;;;;;;;;6238033;28;20062;-81
2023/04/02 07:57:22;;;;;;;24.25;14.68;;;;;;;;;;6239990;28;20253;-81
2023/04/02 08:00:25;;;;;;;22.17;15.13;;;;;;;;;;6242164;28;20077;-80
2023/04/02 08:03:36;;;;;;;26.88;14.82;;;;;;;;;;6242523;28;20049;-80
2023/04/02 08:06:51;;;;;;;22.08;14.77;;;;;;;;;;6238317;28;20068;-80
2023/04/02 08:09:53;;;;;;;23.63;14.70;;;;;;;;;;6240539;28;20046;-80
2023/04/02 08:12:56;;;;;;;19.58;13.38;;;;;;;;;;6243844;28;20042;-79
2023/04/02 08:15:58;;;;;;;22.63;13.70;;;;;;;;;;6244364;28;20293;-78
2023/04/02 08:19:00;;;;;;;20.25;13.10;;;;;;;;;;6244886;28;20342;-84
2023/04/02 08:22:02;;;;;;;16.83;11.15;;;;;;;;;;6244924;28;20380;-83
2023/04/02 08:25:04;;;;;;;16.13;11.30;;;;;;;;;;6242003;28;20068;-80
2023/04/02 08:28:08;;;;;;;18.20;12.07;;;;;;;;;;6245238;28;20061;-80
2023/04/02 08:31:11;;;;;;;20.25;11.20;;;;;;;;;;6243720;28;20064;-80
2023/04/02 08:34:13;;;;;;;15.38;10.27;;;;;;;;;;6243318;28;20108;-82
2023/04/02 08:37:15;;;;;;;19.80;11.38;;;;;;;;;;6242812;28;20066;-80
2023/04/02 08:40:22;;;;;;;15.35;11.02;;;;;;;;;;6242733;28;20062;-78
2023/04/02 08:43:58;;;;;;;17.48;11.50;;;;;;;;;;6241791;28;20234;-79
2023/04/02 08:47:03;;;;;;;18.30;10.35;;;;;;;;;;6145510;28;20290;-79
2023/04/02 08:50:14;;;;;;;22.48;11.93;;;;;;;;;;6144915;28;20287;-80
2023/04/02 08:53:21;;;;;;;14.52;9.85;;;;;;;;;;6142490;28;20134;-79
2023/04/02 08:56:29;;;;;;;14.95;9.52;;;;;;;;;;6147256;28;20060;-78
2023/04/02 08:59:35;;;;;;;15.93;9.35;;;;;;;;;;6132703;28;20114;-78
2023/04/02 09:02:40;;;;;;;12.40;9.77;;;;;;;;;;6141393;28;20062;-77
2023/04/02 09:05:43;;;;;;;14.10;8.73;;;;;;;;;;6144553;28;20391;-75
2023/04/02 09:08:47;;;;;;;12.90;10.13;;;;;;;;;;6139874;28;20204;-76
2023/04/02 09:11:53;;;;;;;14.98;10.75;;;;;;;;;;6143087;28;20063;-76
2023/04/02 09:15:03;;;;;;;16.38;10.05;;;;;;;;;;6139478;28;20246;-76
2023/04/02 09:18:13;;;;;;;13.10;8.23;;;;;;;;;;6142384;28;20283;-76
2023/04/02 09:21:27;;;;;;;14.40;9.13;;;;;;;;;;6153241;28;20333;-76
2023/04/02 09:24:28;;;;;;;13.40;8.88;;;;;;;;;;6242459;28;20847;-75
2023/04/02 09:27:33;;;;;;;15.98;8.95;;;;;;;;;;6240572;28;20302;-77
2023/04/02 09:30:46;;;;;;;13.32;8.38;;;;;;;;;;6244836;28;20042;-76
2023/04/02 09:33:50;;;;;;;15.05;9.02;;;;;;;;;;6241834;28;20292;-77
2023/04/02 09:36:52;;;;;;;15.90;8.82;;;;;;;;;;6241867;28;20059;-76
2023/04/02 09:39:54;;;;;;;14.52;8.95;;;;;;;;;;6242306;28;20061;-76
2023/04/02 09:43:11;;;;;;;11.82;9.13;;;;;;;;;;6242826;28;20042;-82
2023/04/02 09:46:22;;;;;;;12.00;8.30;;;;;;;;;;6234763;28;20057;-77
2023/04/02 09:49:26;;;;;;;10.27;6.30;;;;;;;;;;6240616;28;20090;-75
2023/04/02 09:52:28;;;;;;;10.38;6.95;;;;;;;;;;6242887;28;20050;-76
2023/04/02 09:55:31;;;;;;;10.02;6.75;;;;;;;;;;6241924;28;20462;-75
2023/04/02 09:58:32;;;;;;;7.15;4.70;;;;;;;;;;6242006;28;20112;-76
2023/04/02 10:01:37;;;;;;;7.07;5.70;;;;;;;;;;6241516;28;20061;-76
2023/04/02 10:04:43;;;;;;;10.75;5.80;;;;;;;;;;6241899;28;20120;-78
2023/04/02 10:07:46;;;;;;;7.22;5.03;;;;;;;;;;6242118;28;20068;-77
2023/04/02 10:10:48;;;;;;;;;;;;;;;;;;6241745;28;20041;-77
2023/04/02 10:13:52;;;;;;;9.20;4.78;;;;;;;;;;6240039;28;19924;-77
2023/04/02 10:16:58;;;;;;;10.65;5.40;;;;;;;;;;6241192;28;20069;-76
2023/04/02 10:20:05;;;;;;;6.97;4.95;;;;;;;;;;6241459;28;20203;-76
2023/04/02 10:23:13;;;;;;;10.85;5.55;;;;;;;;;;6241323;28;20049;-76
2023/04/02 10:26:48;;;;;;;7.10;4.68;;;;;;;;;;6241848;28;20061;-76
2023/04/02 10:30:02;;;;;;;7.57;4.88;;;;;;;;;;6238342;28;20411;-77
2023/04/02 10:33:10;;;;;;;7.22;4.82;;;;;;;;;;6239127;28;20099;-77
2023/04/02 10:36:21;;;;;;;8.27;5.32;;;;;;;;;;6244535;28;20302;-77
2023/04/02 10:39:28;;;;;;;7.30;5.20;;;;;;;;;;6240385;28;20050;-78
2023/04/02 10:42:34;;;;;;;10.65;7.07;;;;;;;;;;6241111;28;20057;-77
2023/04/02 10:45:40;;;;;;;18.95;15.07;;;;;;;;;;6241120;28;20041;-79
2023/04/02 10:48:47;;;;;;;11.50;7.97;;;;;;;;;;6238752;28;20057;-75
2023/04/02 10:51:54;;;;;;;14.02;7.68;;;;;;;;;;6242320;28;20057;-77
2023/04/02 10:54:58;;;;;;;13.13;8.18;;;;;;;;;;6232911;28;20045;-77
2023/04/02 10:58:06;;;;;;;8.20;6.72;;;;;;;;;;6241255;28;20178;-76
2023/04/02 11:01:12;;;;;;;10.40;6.90;;;;;;;;;;6237586;28;20349;-74
2023/04/02 11:04:19;;;;;;;7.68;6.00;;;;;;;;;;6243258;28;20073;-74
2023/04/02 11:07:23;;;;;;;8.18;5.50;;;;;;;;;;6240101;28;20068;-73
2023/04/02 11:10:27;;;;;;;10.02;6.00;;;;;;;;;;6240086;28;20045;-72
2023/04/02 11:13:31;;;;;;;19.80;6.60;;;;;;;;;;6238372;28;20349;-71
2023/04/02 11:16:33;;;;;;;9.50;6.55;;;;;;;;;;6238712;28;20057;-72
2023/04/02 11:19:36;;;;;;;9.05;6.25;;;;;;;;;;6242272;28;20092;-76
2023/04/02 11:22:38;;;;;;;8.95;6.40;;;;;;;;;;6238084;28;20125;-76
2023/04/02 11:25:41;;;;;;;9.02;6.55;;;;;;;;;;6240923;28;20041;-75
2023/04/02 11:28:42;;;;;;;9.65;6.60;;;;;;;;;;6238969;28;20364;-75
2023/04/02 11:31:44;;;;;;;9.45;6.70;;;;;;;;;;6241485;28;20053;-75
2023/04/02 11:35:26;;;;;;;9.13;6.45;;;;;;;;;;6240361;28;20049;-76
2023/04/02 11:38:49;;;;;;;9.98;7.20;;;;;;;;;;6139221;28;20055;-75
2023/04/02 11:42:00;;;;;;;;;;;;;;;;;;6141102;28;20044;-75
2023/04/02 11:45:31;;;;;;;11.10;7.38;;;;;;;;;;6139167;28;19919;-75
2023/04/02 11:48:34;;;;;;;8.68;6.22;;;;;;;;;;6130233;28;20055;-77
2023/04/02 11:51:50;;;;;;;11.38;7.10;;;;;;;;;;6140503;28;20047;-76
2023/04/02 11:55:23;;;;;;;9.23;6.85;;;;;;;;;;6137192;28;20283;-76
2023/04/02 11:58:42;;;;;;;9.20;6.25;;;;;;;;;;6138414;28;20118;-75
2023/04/02 12:02:04;;;;;;;10.40;7.05;;;;;;;;;;6139588;28;20055;-77
2023/04/02 12:05:16;;;;;;;9.68;7.10;;;;;;;;;;6138940;28;20370;-75
2023/04/02 12:08:24;;;;;;;8.10;6.57;;;;;;;;;;6140656;28;20066;-75
2023/04/02 12:11:33;;;;;;;8.75;6.47;;;;;;;;;;6138604;28;20048;-75
2023/04/02 12:14:45;;;;;;;8.93;6.43;;;;;;;;;;6216604;28;20076;-75
2023/04/02 12:17:47;;;;;;;10.80;7.45;;;;;;;;;;6238653;28;20050;-76
2023/04/02 12:20:50;;;;;;;9.10;6.97;;;;;;;;;;6238877;28;20061;-75
2023/04/02 12:23:56;;;;;;;9.60;6.93;;;;;;;;;;6238201;28;20061;-75
2023/04/02 12:27:14;;;;;;;10.88;7.20;;;;;;;;;;6240477;28;20108;-75
2023/04/02 12:30:18;;;;;;;11.25;8.15;;;;;;;;;;6240615;28;20050;-75
2023/04/02 12:33:29;;;;;;;13.65;8.90;;;;;;;;;;6240679;28;20057;-75
2023/04/02 12:36:33;;;;;;;11.13;8.95;;;;;;;;;;6237142;28;20353;-76
2023/04/02 12:39:36;;;;;;;13.07;9.90;;;;;;;;;;6238835;28;20049;-75
2023/04/02 12:42:38;;;;;;;13.07;9.20;;;;;;;;;;6236764;28;20273;-75
2023/04/02 12:45:39;;;;;;;10.13;8.43;;;;;;;;;;6236895;28;20049;-75
2023/04/02 12:48:41;;;;;;;8.52;7.20;;;;;;;;;;6243400;28;20049;-75
2023/04/02 12:51:43;;;;;;;12.82;9.45;;;;;;;;;;6243492;28;20053;-75
2023/04/02 12:54:48;;;;;;;11.40;9.05;;;;;;;;;;6243759;28;20060;-75
2023/04/02 12:57:55;;;;;;;11.85;8.20;;;;;;;;;;6242691;28;20340;-76
2023/04/02 13:01:11;;;;;;;9.93;8.15;;;;;;;;;;6241465;28;20052;-77
2023/04/02 13:04:13;;;;;;;14.20;9.07;;;;;;;;;;6243370;28;20056;-75
2023/04/02 13:07:16;;;;;;;10.98;7.07;;;;;;;;;;6242902;28;20048;-76
2023/04/02 13:10:25;;;;;;;10.60;7.60;;;;;;;;;;6243141;28;20099;-75
2023/04/02 13:13:30;;;;;;;8.68;6.95;;;;;;;;;;6241766;28;20061;-75
2023/04/02 13:16:36;;;;;;;9.30;6.70;;;;;;;;;;6240978;28;20454;-75
2023/04/02 13:19:37;;;;;;;8.93;6.72;;;;;;;;;;6240750;28;20076;-77
2023/04/02 13:22:39;;;;;;;11.00;7.55;;;;;;;;;;6241458;28;20415;-76
2023/04/02 13:25:42;;;;;;;10.48;8.38;;;;;;;;;;6242962;28;20062;-76
2023/04/02 13:28:55;;;;;;;9.40;6.68;;;;;;;;;;6240356;28;20258;-76
2023/04/02 13:31:58;;;;;;;;;;;;;;;;;;6242741;28;20113;-76
2023/04/02 13:35:00;;;;;;;10.23;8.50;;;;;;;;;;6240519;28;19939;-76
2023/04/02 13:38:02;;;;;;;11.40;7.88;;;;;;;;;;6243747;28;20057;-75
2023/04/02 13:41:06;;;;;;;9.93;8.25;;;;;;;;;;6245045;28;20052;-76
2023/04/02 13:44:11;;;;;;;10.25;8.48;;;;;;;;;;6242199;28;20383;-75
2023/04/02 13:47:14;;;;;;;12.23;9.30;;;;;;;;;;6242829;28;20065;-76
2023/04/02 13:50:20;;;;;;;13.10;9.43;;;;;;;;;;6243765;28;20057;-78
2023/04/02 13:53:26;;;;;;;12.98;10.60;;;;;;;;;;6239977;28;20057;-77
2023/04/02 13:56:30;;;;;;;12.45;10.00;;;;;;;;;;6240719;28;20045;-77
2023/04/02 13:59:31;;;;;;;12.82;9.48;;;;;;;;;;6239768;28;20345;-76
2023/04/02 14:02:33;;;;;;;8.80;7.75;;;;;;;;;;6240647;28;20061;-76
2023/04/02 14:05:40;;;;;;;11.52;8.00;;;;;;;;;;6243432;28;20107;-76
2023/04/02 14:08:51;;;;;;;10.88;9.00;;;;;;;;;;6241551;28;20050;-76
2023/04/02 14:12:00;;;;;;;9.20;7.90;;;;;;;;;;6242213;28;20074;-75
2023/04/02 14:15:15;;;;;;;9.90;6.82;;;;;;;;;;6240866;28;20058;-77
2023/04/02 14:18:28;;;;;;;10.75;7.43;;;;;;;;;;6241040;28;20056;-75
2023/04/02 14:21:35;;;;;;;10.05;6.45;;;;;;;;;;6240231;28;20284;-75
2023/04/02 14:24:45;;;;;;;6.47;5.47;;;;;;;;;;6241736;28;20046;-76
2023/04/02 14:27:53;;;;;;;5.93;3.90;;;;;;;;;;6243712;28;20045;-78
2023/04/02 14:30:59;;;;;;;3.55;2.70;;;;;;;;;;6239817;28;20049;-76
2023/04/02 14:34:03;;;;;;;3.25;2.70;;;;;;;;;;6242594;28;20257;-75
2023/04/02 14:37:11;;;;;;;5.28;2.15;;;;;;;;;;6240698;28;20061;-77
2023/04/02 14:40:20;;;;;;;4.35;1.80;;;;;;;;;;6241182;28;20260;-76
2023/04/02 14:43:24;;;;;;;4.03;1.90;;;;;;;;;;6238288;28;20056;-75
2023/04/02 14:46:27;;;;;;;2.38;2.15;;;;;;;;;;6238370;28;20072;-75
2023/04/02 14:49:34;;;;;;;2.88;2.42;;;;;;;;;;6239117;28;20053;-75
2023/04/02 14:52:36;;;;;;;2.22;1.85;;;;;;;;;;6241458;28;20084;-76
2023/04/02 14:55:38;;;;;;;;;;;;;;;;;;6240508;28;20053;-76
2023/04/02 14:58:45;;;;;;;2.60;2.00;;;;;;;;;;6237380;28;20219;-77
2023/04/02 15:01:50;;;;;;;5.88;2.50;;;;;;;;;;6239387;28;20121;-75
2023/04/02 15:04:55;;;;;;;3.75;2.58;;;;;;;;;;6239007;28;20053;-75
2023/04/02 15:08:00;;;;;;;3.03;2.13;;;;;;;;;;6241250;28;20045;-76
2023/04/02 15:11:04;;;;;;;2.25;1.92;;;;;;;;;;6239487;28;20313;-75
2023/04/02 15:14:13;;;;;;;4.63;2.83;;;;;;;;;;6240398;28;20354;-76
2023/04/02 15:17:14;;;;;;;2.53;1.88;;;;;;;;;;6238415;28;20112;-76
2023/04/02 15:20:18;;;;;;;3.03;2.08;;;;;;;;;;6239786;28;20136;-76
2023/04/02 15:23:27;;;;;;;4.07;2.63;;;;;;;;;;6239795;28;20341;-75
2023/04/02 15:26:35;;;;;;;8.55;2.97;;;;;;;;;;6241429;28;20137;-76
2023/04/02 15:29:45;;;;;;;3.33;2.50;;;;;;;;;;6239482;28;20068;-76
2023/04/02 15:32:47;;;;;;;3.70;2.90;;;;;;;;;;6238604;28;20065;-76
2023/04/02 15:35:52;;;;;;;3.22;2.50;;;;;;;;;;6241038;28;20057;-76
2023/04/02 15:38:59;;;;;;;4.82;2.80;;;;;;;;;;6237086;28;20041;-77
2023/04/02 15:42:13;;;;;;;4.43;2.35;;;;;;;;;;6240937;28;20068;-75
2023/04/02 15:45:26;;;;;;;5.03;2.25;;;;;;;;;;6239548;28;20045;-77
2023/04/02 15:48:36;;;;;;;4.40;2.67;;;;;;;;;;6235487;28;20120;-75
2023/04/02 15:51:47;;;;;;;2.35;2.05;;;;;;;;;;6240101;28;20060;-76
2023/04/02 15:54:58;;;;;;;3.33;2.00;;;;;;;;;;6238500;28;20049;-76
2023/04/02 15:58:16;;;;;;;3.42;2.33;;;;;;;;;;6235765;28;20078;-75
2023/04/02 16:01:26;;;;;;;2.47;2.17;;;;;;;;;;6238201;28;20096;-76
2023/04/02 16:04:46;;;;;;;4.72;2.53;;;;;;;;;;6238097;28;20317;-76
2023/04/02 16:08:11;;;;;;;8.43;2.83;;;;;;;;;;6238037;28;20104;-76
2023/04/02 16:11:14;;;;;;;4.30;2.58;;;;;;;;;;6240950;28;20360;-76
2023/04/02 16:14:22;;;;;;;5.38;2.83;;;;;;;;;;6237844;28;20058;-77
2023/04/02 16:17:30;;;;;;;4.95;2.40;;;;;;;;;;6240071;28;20061;-75
2023/04/02 16:20:34;;;;;;;3.78;2.20;;;;;;;;;;6238063;28;20069;-75
2023/04/02 16:23:37;;;;;;;3.35;2.30;;;;;;;;;;6243220;28;20060;-76
2023/04/02 16:26:47;;;;;;;4.45;2.10;;;;;;;;;;6244364;28;20056;-75
2023/04/02 16:30:06;;;;;;;4.47;2.00;;;;;;;;;;6244404;28;20076;-78
2023/04/02 16:33:18;;;;;;;3.10;1.95;;;;;;;;;;6244998;28;20342;-77
2023/04/02 16:36:26;;;;;;;2.30;1.80;;;;;;;;;;6242254;28;20053;-76
2023/04/02 16:39:34;;;;;;;3.83;2.20;;;;;;;;;;6241452;28;20241;-76
2023/04/02 16:42:43;;;;;;;3.08;2.13;;;;;;;;;;6240779;28;20057;-76
2023/04/02 16:45:52;;;;;;;2.28;1.70;;;;;;;;;;6242750;28;20121;-76
2023/04/02 16:49:04;;;;;;;5.10;2.03;;;;;;;;;;6240965;28;20156;-77
2023/04/02 16:52:20;;;;;;;3.58;1.95;;;;;;;;;;6242496;28;20061;-77
2023/04/02 16:55:31;;;;;;;2.47;1.92;;;;;;;;;;6243688;28;20053;-76
2023/04/02 16:58:42;;;;;;;4.80;1.80;;;;;;;;;;6240980;28;20241;-77
2023/04/02 17:01:52;;;;;;;3.15;2.10;;;;;;;;;;6241245;28;20052;-77
2023/04/02 17:04:59;;;;;;;5.75;1.85;;;;;;;;;;6239185;28;20112;-77
2023/04/02 17:08:11;;;;;;;7.13;2.20;;;;;;;;;;6242819;28;20073;-77
2023/04/02 17:11:21;;;;;;;2.50;1.80;;;;;;;;;;6242526;28;20241;-77
2023/04/02 17:14:28;;;;;;;4.55;1.90;;;;;;;;;;6242198;28;20113;-78
2023/04/02 17:17:30;;;;;;;2.67;1.67;;;;;;;;;;6244097;28;20060;-76
2023/04/02 17:20:33;;;;;;;2.80;1.70;;;;;;;;;;6240635;28;20068;-77
2023/04/02 17:23:45;;;;;;;3.53;1.95;;;;;;;;;;6241945;28;20341;-77
2023/04/02 17:26:50;;;;;;;5.38;1.80;;;;;;;;;;6241501;28;20129;-76
2023/04/02 17:29:54;;;;;;;3.47;1.98;;;;;;;;;;6243535;28;20049;-77
2023/04/02 17:32:56;;;;;;;4.72;2.10;;;;;;;;;;6242689;28;20057;-77
2023/04/02 17:36:08;;;;;;;3.83;1.95;;;;;;;;;;6241690;28;20083;-75
2023/04/02 17:39:19;;;;;;;3.50;2.03;;;;;;;;;;6241945;28;20329;-77
2023/04/02 17:42:27;;;;;;;4.57;2.38;;;;;;;;;;6242894;28;20104;-77
2023/04/02 17:45:33;;;;;;;6.47;2.10;;;;;;;;;;6242888;28;20061;-77
2023/04/02 17:48:41;;;;;;;2.88;1.60;;;;;;;;;;6241604;28;20066;-77
2023/04/02 17:51:49;;;;;;;5.60;2.08;;;;;;;;;;6240776;28;20041;-76
2023/04/02 17:54:57;;;;;;;3.30;2.13;;;;;;;;;;6241587;28;20061;-76
2023/04/02 17:58:04;;;;;;;3.83;2.20;;;;;;;;;;6240691;28;20257;-73
2023/04/02 18:01:09;;;;;;;6.40;2.35;;;;;;;;;;6243433;28;20053;-74
2023/04/02 18:04:19;;;;;;;4.57;1.95;;;;;;;;;;6242566;28;20050;-73
2023/04/02 18:07:31;;;;;;;4.35;2.40;;;;;;;;;;6243809;28;20061;-71
2023/04/02 18:10:38;;;;;;;3.58;2.38;;;;;;;;;;6241702;28;20050;-74
2023/04/02 18:13:42;;;;;;;5.00;2.20;;;;;;;;;;6241636;28;20053;-74
2023/04/02 18:16:47;;;;;;;6.90;2.30;;;;;;;;;;6240887;28;20428;-73
2023/04/02 18:19:54;;;;;;;5.05;2.40;;;;;;;;;;6241881;28;20400;-72
2023/04/02 18:23:01;;;;;;;5.10;2.60;;;;;;;;;;6239590;28;20045;-76
2023/04/02 18:26:10;;;;;;;4.40;2.22;;;;;;;;;;6244198;28;20057;-74
2023/04/02 18:29:22;;;;;;;4.25;2.47;;;;;;;;;;6236916;28;20061;-75
2023/04/02 18:32:42;;;;;;;4.30;2.08;;;;;;;;;;6246692;28;20419;-76
2023/04/02 18:35:50;;;;;;;3.35;2.40;;;;;;;;;;6245264;28;20334;-73
2023/04/02 18:38:56;;;;;;;3.13;2.33;;;;;;;;;;6246222;28;20064;-76
2023/04/02 18:42:01;;;;;;;4.32;2.22;;;;;;;;;;6247255;28;20041;-75
2023/04/02 18:45:10;;;;;;;3.33;2.03;;;;;;;;;;6246541;28;20095;-75
2023/04/02 18:48:22;;;;;;;4.15;2.40;;;;;;;;;;6247292;28;20056;-74
2023/04/02 18:51:25;;;;;;;5.80;2.55;;;;;;;;;;6245539;28;20049;-74
2023/04/02 18:54:32;;;;;;;6.00;2.63;;;;;;;;;;6244654;28;20065;-74
2023/04/02 18:57:37;;;;;;;3.20;2.50;;;;;;;;;;6246849;28;20100;-75